sensor_id;sensor_type;location;lat;lon;timestamp;pressure;altitude;pressure_sealevel;temperature;humidity
17615;BME280;8926;49.720;6.576;2022-09-11T00:00:34;99859.66;;;17.18;89.48
17615;BME280;8926;49.720;6.576;2022-09-11T00:03:00;99856.16;;;17.17;88.88
17615;BME280;8926;49.720;6.576;2022-09-11T00:05:25;99852.69;;;17.17;88.79
17615;BME280;8926;49.720;6.576;2022-09-11T00:07:50;99862.56;;;17.15;89.20
17615;BME280;8926;49.720;6.576;2022-09-11T00:10:16;99859.91;;;17.15;88.61
17615;BME280;8926;49.720;6.576;2022-09-11T00:12:42;99863.53;;;17.14;88.80
17615;BME280;8926;49.720;6.576;2022-09-11T00:15:08;99865.44;;;17.12;89.28
17615;BME280;8926;49.720;6.576;2022-09-11T00:17:33;99863.53;;;17.14;89.14
17615;BME280;8926;49.720;6.576;2022-09-11T00:19:58;99860.72;;;17.15;88.77
17615;BME280;8926;49.720;6.576;2022-09-11T00:22:25;99857.41;;;17.13;89.17
17615;BME280;8926;49.720;6.576;2022-09-11T00:24:51;99858.25;;;17.14;89.29
17615;BME280;8926;49.720;6.576;2022-09-11T00:27:16;99858.25;;;17.14;89.25
17615;BME280;8926;49.720;6.576;2022-09-11T00:29:41;99857.41;;;17.13;89.43
17615;BME280;8926;49.720;6.576;2022-09-11T00:32:07;99853.81;;;17.14;89.39
17615;BME280;8926;49.720;6.576;2022-09-11T00:34:32;99852.97;;;17.14;88.57
17615;BME280;8926;49.720;6.576;2022-09-11T00:36:58;99850.69;;;17.09;88.86
17615;BME280;8926;49.720;6.576;2022-09-11T00:39:23;99861.63;;;17.05;89.36
17615;BME280;8926;49.720;6.576;2022-09-11T00:41:48;99855.63;;;17.03;89.47
17615;BME280;8926;49.720;6.576;2022-09-11T00:47:12;99854.44;;;16.95;89.92
17615;BME280;8926;49.720;6.576;2022-09-11T00:49:47;99849.41;;;16.92;90.21
17615;BME280;8926;49.720;6.576;2022-09-11T00:52:28;99849.66;;;16.89;90.16
17615;BME280;8926;49.720;6.576;2022-09-11T00:54:59;99841.50;;;16.92;90.43
17615;BME280;8926;49.720;6.576;2022-09-11T00:57:28;99850.84;;;16.96;90.32
17615;BME280;8926;49.720;6.576;2022-09-11T00:59:54;99851.56;;;16.99;90.44
17615;BME280;8926;49.720;6.576;2022-09-11T01:02:24;99841.72;;;17.01;90.50
17615;BME280;8926;49.720;6.576;2022-09-11T01:04:55;99845.06;;;17.03;90.19
17615;BME280;8926;49.720;6.576;2022-09-11T01:07:21;99844.25;;;17.02;90.06
17615;BME280;8926;49.720;6.576;2022-09-11T01:09:47;99846.03;;;17.02;90.07
17615;BME280;8926;49.720;6.576;2022-09-11T01:12:22;99851.31;;;17.02;89.92
17615;BME280;8926;49.720;6.576;2022-09-11T01:14:59;99854.44;;;16.95;89.79
17615;BME280;8926;49.720;6.576;2022-09-11T01:17:54;99850.50;;;16.90;89.97
17615;BME280;8926;49.720;6.576;2022-09-11T01:20:30;99853.28;;;16.88;89.92
17615;BME280;8926;49.720;6.576;2022-09-11T01:28:20;99857.63;;;16.78;90.63
17615;BME280;8926;49.720;6.576;2022-09-11T01:30:53;99855.00;;;16.78;90.91
17615;BME280;8926;49.720;6.576;2022-09-11T01:33:29;99860.63;;;16.74;91.21
17615;BME280;8926;49.720;6.576;2022-09-11T01:36:21;99858.13;;;16.72;90.76
17615;BME280;8926;49.720;6.576;2022-09-11T01:38:53;99857.88;;;16.75;90.84
17615;BME280;8926;49.720;6.576;2022-09-11T01:41:33;99862.91;;;16.78;90.92
17615;BME280;8926;49.720;6.576;2022-09-11T01:44:12;99850.44;;;16.80;90.78
17615;BME280;8926;49.720;6.576;2022-09-11T01:46:45;99860.03;;;16.81;90.85
17615;BME280;8926;49.720;6.576;2022-09-11T01:49:22;99864.09;;;16.85;90.52
17615;BME280;8926;49.720;6.576;2022-09-11T01:51:54;99860.50;;;16.86;90.50
17615;BME280;8926;49.720;6.576;2022-09-11T01:54:23;99859.53;;;16.87;90.46
17615;BME280;8926;49.720;6.576;2022-09-11T01:56:53;99855.22;;;16.86;90.21
17615;BME280;8926;49.720;6.576;2022-09-11T01:59:24;99858.81;;;16.85;90.37
17615;BME280;8926;49.720;6.576;2022-09-11T02:01:58;99860.75;;;16.83;90.29
17615;BME280;8926;49.720;6.576;2022-09-11T02:04:29;99863.38;;;16.83;90.43
17615;BME280;8926;49.720;6.576;2022-09-11T02:07:18;99866.00;;;16.83;89.99
17615;BME280;8926;49.720;6.576;2022-09-11T02:09:52;99866.25;;;16.80;90.14
17615;BME280;8926;49.720;6.576;2022-09-11T02:12:23;99861.22;;;16.77;89.33
17615;BME280;8926;49.720;6.576;2022-09-11T02:14:51;99869.25;;;16.76;89.52
17615;BME280;8926;49.720;6.576;2022-09-11T02:20:01;99872.25;;;16.71;89.43
17615;BME280;8926;49.720;6.576;2022-09-11T02:22:28;99863.88;;;16.66;89.13
17615;BME280;8926;49.720;6.576;2022-09-11T02:24:54;99867.47;;;16.65;88.94
17615;BME280;8926;49.720;6.576;2022-09-11T02:27:23;99867.72;;;16.62;89.57
17615;BME280;8926;49.720;6.576;2022-09-11T02:29:49;99870.34;;;16.62;89.34
17615;BME280;8926;49.720;6.576;2022-09-11T02:32:15;99869.34;;;16.63;89.25
17615;BME280;8926;49.720;6.576;2022-09-11T02:34:42;99865.78;;;16.64;88.99
17615;BME280;8926;49.720;6.576;2022-09-11T02:43:08;99881.84;;;16.61;89.13
17615;BME280;8926;49.720;6.576;2022-09-11T02:46:01;99873.22;;;16.59;89.13
17615;BME280;8926;49.720;6.576;2022-09-11T02:51:45;99878.97;;;16.53;89.16
17615;BME280;8926;49.720;6.576;2022-09-11T02:56:34;99877.53;;;16.49;89.28
17615;BME280;8926;49.720;6.576;2022-09-11T02:59:11;99889.78;;;16.50;89.34
17615;BME280;8926;49.720;6.576;2022-09-11T03:01:49;99884.50;;;16.50;89.32
17615;BME280;8926;49.720;6.576;2022-09-11T03:04:16;99889.88;;;16.48;89.55
17615;BME280;8926;49.720;6.576;2022-09-11T03:06:43;99900.69;;;16.45;89.35
17615;BME280;8926;49.720;6.576;2022-09-11T03:09:09;99909.66;;;16.43;89.45
17615;BME280;8926;49.720;6.576;2022-09-11T03:11:34;99908.81;;;16.42;89.60
17615;BME280;8926;49.720;6.576;2022-09-11T03:14:00;99909.91;;;16.40;89.63
17615;BME280;8926;49.720;6.576;2022-09-11T03:16:25;99904.63;;;16.40;89.31
17615;BME280;8926;49.720;6.576;2022-09-11T03:18:51;99908.22;;;16.39;89.30
17615;BME280;8926;49.720;6.576;2022-09-11T03:21:16;99899.75;;;16.35;89.82
17615;BME280;8926;49.720;6.576;2022-09-11T03:23:41;99905.13;;;16.34;89.87
17615;BME280;8926;49.720;6.576;2022-09-11T03:26:07;99908.00;;;16.31;89.77
17615;BME280;8926;49.720;6.576;2022-09-11T03:28:33;99908.34;;;16.26;89.88
17615;BME280;8926;49.720;6.576;2022-09-11T03:30:58;99912.78;;;16.25;90.02
17615;BME280;8926;49.720;6.576;2022-09-11T03:33:24;99906.91;;;16.22;89.73
17615;BME280;8926;49.720;6.576;2022-09-11T03:35:50;99914.22;;;16.18;89.86
17615;BME280;8926;49.720;6.576;2022-09-11T03:38:15;99913.72;;;16.13;89.66
17615;BME280;8926;49.720;6.576;2022-09-11T03:40:41;99915.91;;;16.08;89.45
17615;BME280;8926;49.720;6.576;2022-09-11T03:43:07;99914.69;;;16.01;89.64
17615;BME280;8926;49.720;6.576;2022-09-11T03:45:33;99920.19;;;15.98;89.68
17615;BME280;8926;49.720;6.576;2022-09-11T03:47:58;99916.81;;;15.96;89.90
17615;BME280;8926;49.720;6.576;2022-09-11T03:50:24;99927.59;;;15.93;90.23
17615;BME280;8926;49.720;6.576;2022-09-11T03:52:49;99925.91;;;15.92;89.90
17615;BME280;8926;49.720;6.576;2022-09-11T03:55:15;99925.91;;;15.92;90.00
17615;BME280;8926;49.720;6.576;2022-09-11T03:57:40;99924.22;;;15.91;90.00
17615;BME280;8926;49.720;6.576;2022-09-11T04:00:07;99919.19;;;15.88;89.56
17615;BME280;8926;49.720;6.576;2022-09-11T04:02:32;99916.66;;;15.86;89.86
17615;BME280;8926;49.720;6.576;2022-09-11T04:04:58;99916.81;;;15.85;89.58
17615;BME280;8926;49.720;6.576;2022-09-11T04:07:23;99924.94;;;15.82;89.26
17615;BME280;8926;49.720;6.576;2022-09-11T04:09:49;99926.84;;;15.80;89.90
17615;BME280;8926;49.720;6.576;2022-09-11T04:12:14;99923.25;;;15.81;89.20
17615;BME280;8926;49.720;6.576;2022-09-11T04:14:40;99924.34;;;15.78;89.80
17615;BME280;8926;49.720;6.576;2022-09-11T04:17:06;99918.44;;;15.75;89.62
17615;BME280;8926;49.720;6.576;2022-09-11T04:19:33;99922.25;;;15.71;89.84
17615;BME280;8926;49.720;6.576;2022-09-11T04:21:58;99920.59;;;15.70;90.00
17615;BME280;8926;49.720;6.576;2022-09-11T04:24:23;99934.69;;;15.69;90.17
17615;BME280;8926;49.720;6.576;2022-09-11T04:26:49;99927.75;;;15.68;89.94
17615;BME280;8926;49.720;6.576;2022-09-11T04:29:14;99936.16;;;15.73;89.84
17615;BME280;8926;49.720;6.576;2022-09-11T04:31:42;99935.94;;;15.76;90.13
17615;BME280;8926;49.720;6.576;2022-09-11T04:34:07;99942.03;;;15.76;90.10
17615;BME280;8926;49.720;6.576;2022-09-11T04:36:33;99944.56;;;15.78;89.80
17615;BME280;8926;49.720;6.576;2022-09-11T04:38:59;99939.28;;;15.78;90.05
17615;BME280;8926;49.720;6.576;2022-09-11T04:41:25;99945.63;;;15.75;89.82
17615;BME280;8926;49.720;6.576;2022-09-11T04:43:55;99946.47;;;15.76;90.57
17615;BME280;8926;49.720;6.576;2022-09-11T04:46:21;99954.38;;;15.76;90.68
17615;BME280;8926;49.720;6.576;2022-09-11T04:48:56;99953.66;;;15.74;90.29
17615;BME280;8926;49.720;6.576;2022-09-11T04:51:31;99957.22;;;15.73;90.59
17615;BME280;8926;49.720;6.576;2022-09-11T04:53:58;99957.22;;;15.73;90.52
17615;BME280;8926;49.720;6.576;2022-09-11T04:56:26;99960.59;;;15.75;90.50
17615;BME280;8926;49.720;6.576;2022-09-11T04:58:55;99958.69;;;15.77;90.18
17615;BME280;8926;49.720;6.576;2022-09-11T05:01:22;99962.28;;;15.76;90.06
17615;BME280;8926;49.720;6.576;2022-09-11T05:03:48;99957.22;;;15.73;90.12
17615;BME280;8926;49.720;6.576;2022-09-11T05:06:14;99965.88;;;15.75;90.17
17615;BME280;8926;49.720;6.576;2022-09-11T05:08:41;99965.88;;;15.75;90.02
17615;BME280;8926;49.720;6.576;2022-09-11T05:11:10;99962.28;;;15.76;89.93
17615;BME280;8926;49.720;6.576;2022-09-11T05:13:35;99958.91;;;15.74;89.62
17615;BME280;8926;49.720;6.576;2022-09-11T05:16:05;99969.44;;;15.74;89.49
17615;BME280;8926;49.720;6.576;2022-09-11T05:18:33;99972.09;;;15.74;89.11
17615;BME280;8926;49.720;6.576;2022-09-11T05:21:00;99976.41;;;15.75;89.30
17615;BME280;8926;49.720;6.576;2022-09-11T05:23:27;99974.59;;;15.75;88.99
17615;BME280;8926;49.720;6.576;2022-09-11T05:26:01;99977.34;;;15.74;88.77
17615;BME280;8926;49.720;6.576;2022-09-11T05:28:27;99988.63;;;15.76;89.24
17615;BME280;8926;49.720;6.576;2022-09-11T05:30:53;99987.66;;;15.77;89.26
17615;BME280;8926;49.720;6.576;2022-09-11T05:33:20;99995.34;;;15.80;89.09
17615;BME280;8926;49.720;6.576;2022-09-11T05:35:48;100004.72;;;15.84;88.92
17615;BME280;8926;49.720;6.576;2022-09-11T05:38:13;99998.72;;;15.93;88.89
17615;BME280;8926;49.720;6.576;2022-09-11T05:40:43;99995.19;;;16.05;88.69
17615;BME280;8926;49.720;6.576;2022-09-11T05:43:09;99999.50;;;16.17;88.23
17615;BME280;8926;49.720;6.576;2022-09-11T05:45:34;99993.56;;;16.38;87.88
17615;BME280;8926;49.720;6.576;2022-09-11T05:48:00;100004.19;;;16.71;86.29
17615;BME280;8926;49.720;6.576;2022-09-11T05:50:27;100001.03;;;17.00;84.99
17615;BME280;8926;49.720;6.576;2022-09-11T05:52:52;100005.25;;;17.02;84.63
17615;BME280;8926;49.720;6.576;2022-09-11T05:55:17;100000.81;;;16.91;84.16
17615;BME280;8926;49.720;6.576;2022-09-11T05:57:43;100008.50;;;16.83;84.45
17615;BME280;8926;49.720;6.576;2022-09-11T06:00:08;100007.78;;;16.81;84.69
17615;BME280;8926;49.720;6.576;2022-09-11T06:02:34;100010.63;;;16.89;84.86
17615;BME280;8926;49.720;6.576;2022-09-11T06:04:59;100017.38;;;16.82;85.17
17615;BME280;8926;49.720;6.576;2022-09-11T06:07:24;100019.53;;;16.77;85.47
17615;BME280;8926;49.720;6.576;2022-09-11T06:09:50;100025.03;;;16.74;85.42
17615;BME280;8926;49.720;6.576;2022-09-11T06:12:16;100018.31;;;16.70;85.60
17615;BME280;8926;49.720;6.576;2022-09-11T06:14:42;100034.16;;;16.70;85.90
17615;BME280;8926;49.720;6.576;2022-09-11T06:17:08;100033.06;;;16.73;86.37
17615;BME280;8926;49.720;6.576;2022-09-11T06:19:33;100028.66;;;16.73;86.09
17615;BME280;8926;49.720;6.576;2022-09-11T06:21:59;100032.84;;;16.76;86.15
17615;BME280;8926;49.720;6.576;2022-09-11T06:24:24;100048.44;;;16.79;85.93
17615;BME280;8926;49.720;6.576;2022-09-11T06:26:49;100047.13;;;16.84;85.87
17615;BME280;8926;49.720;6.576;2022-09-11T06:29:15;100054.09;;;16.85;86.40
17615;BME280;8926;49.720;6.576;2022-09-11T06:31:40;100052.66;;;16.81;86.21
17615;BME280;8926;49.720;6.576;2022-09-11T06:34:05;100059.00;;;16.79;86.93
17615;BME280;8926;49.720;6.576;2022-09-11T06:36:31;100061.75;;;16.77;87.01
17615;BME280;8926;49.720;6.576;2022-09-11T06:38:57;100059.34;;;16.74;87.45
17615;BME280;8926;49.720;6.576;2022-09-11T06:41:24;100061.97;;;16.74;87.94
17615;BME280;8926;49.720;6.576;2022-09-11T06:43:51;100062.81;;;16.75;87.78
17615;BME280;8926;49.720;6.576;2022-09-11T06:46:19;100054.78;;;16.76;87.35
17615;BME280;8926;49.720;6.576;2022-09-11T06:48:46;100063.44;;;16.78;87.41
17615;BME280;8926;49.720;6.576;2022-09-11T06:51:14;100063.19;;;16.81;87.13
17615;BME280;8926;49.720;6.576;2022-09-11T06:53:40;100051.69;;;16.82;87.55
17615;BME280;8926;49.720;6.576;2022-09-11T06:56:07;100058.03;;;16.91;87.88
17615;BME280;8926;49.720;6.576;2022-09-11T06:58:33;100051.69;;;17.05;88.06
17615;BME280;8926;49.720;6.576;2022-09-11T07:01:03;100057.31;;;17.22;87.37
17615;BME280;8926;49.720;6.576;2022-09-11T07:03:30;100055.03;;;17.40;86.24
17615;BME280;8926;49.720;6.576;2022-09-11T07:05:55;100051.75;;;17.48;85.97
17615;BME280;8926;49.720;6.576;2022-09-11T07:08:20;100048.13;;;17.49;85.86
17615;BME280;8926;49.720;6.576;2022-09-11T07:10:46;100063.16;;;17.48;85.57
17615;BME280;8926;49.720;6.576;2022-09-11T07:13:11;100068.66;;;17.45;85.97
17615;BME280;8926;49.720;6.576;2022-09-11T07:15:37;100058.09;;;17.45;85.67
17615;BME280;8926;49.720;6.576;2022-09-11T07:18:02;100061.34;;;17.49;85.12
17615;BME280;8926;49.720;6.576;2022-09-11T07:20:28;100070.50;;;17.34;84.57
17615;BME280;8926;49.720;6.576;2022-09-11T07:22:53;100069.44;;;17.25;84.84
17615;BME280;8926;49.720;6.576;2022-09-11T07:25:18;100073.03;;;17.24;84.70
17615;BME280;8926;49.720;6.576;2022-09-11T07:27:44;100067.88;;;17.22;84.57
17615;BME280;8926;49.720;6.576;2022-09-11T07:30:10;100066.31;;;17.31;84.15
17615;BME280;8926;49.720;6.576;2022-09-11T07:32:36;100067.50;;;17.38;84.83
17615;BME280;8926;49.720;6.576;2022-09-11T07:35:02;100068.41;;;17.59;84.96
17615;BME280;8926;49.720;6.576;2022-09-11T07:37:28;100061.38;;;17.92;82.80
17615;BME280;8926;49.720;6.576;2022-09-11T07:39:53;100066.38;;;18.27;82.20
17615;BME280;8926;49.720;6.576;2022-09-11T07:42:19;100063.22;;;18.54;80.97
17615;BME280;8926;49.720;6.576;2022-09-11T07:44:44;100072.28;;;18.72;78.94
17615;BME280;8926;49.720;6.576;2022-09-11T07:47:09;100079.38;;;18.92;78.31
17615;BME280;8926;49.720;6.576;2022-09-11T07:49:35;100068.22;;;18.98;76.99
17615;BME280;8926;49.720;6.576;2022-09-11T07:52:00;100070.72;;;18.90;75.76
17615;BME280;8926;49.720;6.576;2022-09-11T07:54:27;100079.63;;;18.89;77.13
17615;BME280;8926;49.720;6.576;2022-09-11T07:56:55;100079.09;;;18.95;76.72
17615;BME280;8926;49.720;6.576;2022-09-11T07:59:22;100080.78;;;18.96;77.39
17615;BME280;8926;49.720;6.576;2022-09-11T08:01:48;100076.59;;;18.94;77.41
17615;BME280;8926;49.720;6.576;2022-09-11T08:04:17;100084.03;;;18.79;77.02
17615;BME280;8926;49.720;6.576;2022-09-11T08:06:43;100081.19;;;18.71;77.91
17615;BME280;8926;49.720;6.576;2022-09-11T08:09:11;100082.56;;;18.66;77.70
17615;BME280;8926;49.720;6.576;2022-09-11T08:11:42;100073.19;;;18.61;78.03
17615;BME280;8926;49.720;6.576;2022-09-11T08:14:07;100086.88;;;18.67;78.76
17615;BME280;8926;49.720;6.576;2022-09-11T08:16:35;100081.19;;;18.71;78.02
17615;BME280;8926;49.720;6.576;2022-09-11T08:19:00;100080.03;;;18.64;77.39
17615;BME280;8926;49.720;6.576;2022-09-11T08:21:26;100082.19;;;18.59;78.24
17615;BME280;8926;49.720;6.576;2022-09-11T08:23:52;100088.38;;;18.59;78.58
17615;BME280;8926;49.720;6.576;2022-09-11T08:26:20;100089.53;;;18.67;79.01
17615;BME280;8926;49.720;6.576;2022-09-11T08:28:47;100088.69;;;18.66;78.60
17615;BME280;8926;49.720;6.576;2022-09-11T08:31:13;100089.28;;;18.70;78.71
17615;BME280;8926;49.720;6.576;2022-09-11T08:33:38;100089.22;;;18.60;78.49
17615;BME280;8926;49.720;6.576;2022-09-11T08:36:07;100087.84;;;18.66;79.21
17615;BME280;8926;49.720;6.576;2022-09-11T08:38:34;100092.47;;;18.73;78.41
17615;BME280;8926;49.720;6.576;2022-09-11T08:43:51;100099.06;;;18.79;78.18
17615;BME280;8926;49.720;6.576;2022-09-11T08:46:19;100101.06;;;18.86;78.29
17615;BME280;8926;49.720;6.576;2022-09-11T08:48:53;100096.03;;;18.83;77.71
17615;BME280;8926;49.720;6.576;2022-09-11T08:51:21;100091.63;;;18.93;78.24
17615;BME280;8926;49.720;6.576;2022-09-11T08:53:46;100093.91;;;19.08;78.30
17615;BME280;8926;49.720;6.576;2022-09-11T08:56:18;100092.88;;;19.20;77.78
17615;BME280;8926;49.720;6.576;2022-09-11T08:59:20;100088.47;;;19.40;77.28
17615;BME280;8926;49.720;6.576;2022-09-11T09:12:04;100079.19;;;21.54;69.54
17615;BME280;8926;49.720;6.576;2022-09-11T09:17:42;100068.16;;;23.08;64.71
17615;BME280;8926;49.720;6.576;2022-09-11T09:20:20;100069.25;;;23.31;62.81
17615;BME280;8926;49.720;6.576;2022-09-11T09:23:02;100064.13;;;23.38;60.94
17615;BME280;8926;49.720;6.576;2022-09-11T09:25:34;100066.72;;;23.55;60.34
17615;BME280;8926;49.720;6.576;2022-09-11T09:30:54;100063.06;;;23.56;61.89
17615;BME280;8926;49.720;6.576;2022-09-11T09:33:33;100059.47;;;23.90;62.40
17615;BME280;8926;49.720;6.576;2022-09-11T09:36:32;100065.56;;;23.58;59.81
17615;BME280;8926;49.720;6.576;2022-09-11T09:38:59;100067.19;;;23.17;61.71
17615;BME280;8926;49.720;6.576;2022-09-11T09:47:00;100072.31;;;22.32;63.03
17615;BME280;8926;49.720;6.576;2022-09-11T09:49:33;100067.22;;;22.65;63.35
17615;BME280;8926;49.720;6.576;2022-09-11T09:52:09;100070.97;;;23.48;61.21
17615;BME280;8926;49.720;6.576;2022-09-11T09:54:38;100056.94;;;24.21;58.08
17615;BME280;8926;49.720;6.576;2022-09-11T09:57:06;100065.13;;;24.68;56.22
17615;BME280;8926;49.720;6.576;2022-09-11T09:59:51;100067.72;;;25.09;55.05
17615;BME280;8926;49.720;6.576;2022-09-11T10:02:37;100057.47;;;24.57;55.14
17615;BME280;8926;49.720;6.576;2022-09-11T10:05:27;100067.44;;;23.98;54.82
17615;BME280;8926;49.720;6.576;2022-09-11T10:08:02;100074.75;;;23.63;59.68
17615;BME280;8926;49.720;6.576;2022-09-11T10:10:35;100079.22;;;23.21;59.65
17615;BME280;8926;49.720;6.576;2022-09-11T10:13:21;100083.34;;;22.81;61.59
17615;BME280;8926;49.720;6.576;2022-09-11T10:15:51;100073.81;;;22.53;60.78
17615;BME280;8926;49.720;6.576;2022-09-11T10:23:54;100068.41;;;21.91;62.75
17615;BME280;8926;49.720;6.576;2022-09-11T10:29:15;100068.19;;;21.85;62.55
17615;BME280;8926;49.720;6.576;2022-09-11T10:31:53;100071.81;;;21.84;61.91
17615;BME280;8926;49.720;6.576;2022-09-11T10:34:22;100071.81;;;21.84;63.22
17615;BME280;8926;49.720;6.576;2022-09-11T10:39:18;100070.94;;;21.93;62.36
17615;BME280;8926;49.720;6.576;2022-09-11T10:41:50;100064.44;;;22.49;61.97
17615;BME280;8926;49.720;6.576;2022-09-11T10:44:19;100067.84;;;22.59;60.74
17615;BME280;8926;49.720;6.576;2022-09-11T10:47:04;100065.53;;;22.64;60.75
17615;BME280;8926;49.720;6.576;2022-09-11T10:49:37;100073.06;;;22.68;59.50
17615;BME280;8926;49.720;6.576;2022-09-11T10:54:42;100066.88;;;23.12;59.77
17615;BME280;8926;49.720;6.576;2022-09-11T11:00:32;100071.56;;;23.26;57.94
17615;BME280;8926;49.720;6.576;2022-09-11T11:03:04;100069.19;;;23.15;58.04
17615;BME280;8926;49.720;6.576;2022-09-11T11:05:37;100066.34;;;23.08;59.08
17615;BME280;8926;49.720;6.576;2022-09-11T11:10:52;100065.47;;;22.99;58.40
17615;BME280;8926;49.720;6.576;2022-09-11T11:16:19;100058.97;;;23.02;59.52
17615;BME280;8926;49.720;6.576;2022-09-11T11:21:47;100062.22;;;22.88;59.01
17615;BME280;8926;49.720;6.576;2022-09-11T11:30:13;100059.28;;;22.99;58.30
17615;BME280;8926;49.720;6.576;2022-09-11T11:36:05;100059.41;;;23.23;56.53
17615;BME280;8926;49.720;6.576;2022-09-11T11:41:14;100062.25;;;23.30;56.34
17615;BME280;8926;49.720;6.576;2022-09-11T11:43:45;100065.91;;;23.29;57.12
17615;BME280;8926;49.720;6.576;2022-09-11T11:46:18;100067.28;;;23.33;57.30
17615;BME280;8926;49.720;6.576;2022-09-11T11:51:17;100063.66;;;23.50;57.58
17615;BME280;8926;49.720;6.576;2022-09-11T11:53:50;100063.41;;;23.61;55.36
17615;BME280;8926;49.720;6.576;2022-09-11T11:56:36;100056.31;;;23.44;57.24
17615;BME280;8926;49.720;6.576;2022-09-11T11:59:26;100053.63;;;23.36;57.30
17615;BME280;8926;49.720;6.576;2022-09-11T12:02:03;100055.63;;;23.42;57.34
17615;BME280;8926;49.720;6.576;2022-09-11T12:04:37;100053.94;;;23.41;57.10
17615;BME280;8926;49.720;6.576;2022-09-11T12:07:12;100057.44;;;23.33;55.54
17615;BME280;8926;49.720;6.576;2022-09-11T12:09:47;100047.75;;;23.24;55.36
17615;BME280;8926;49.720;6.576;2022-09-11T12:12:14;100050.38;;;23.16;56.96
17615;BME280;8926;49.720;6.576;2022-09-11T12:14:48;100048.56;;;23.25;55.84
17615;BME280;8926;49.720;6.576;2022-09-11T12:17:16;100046.41;;;23.62;55.73
17615;BME280;8926;49.720;6.576;2022-09-11T12:25:48;100031.78;;;24.31;54.32
17615;BME280;8926;49.720;6.576;2022-09-11T12:36:06;100013.44;;;24.28;52.47
17615;BME280;8926;49.720;6.576;2022-09-11T12:38:40;100014.75;;;24.41;53.21
17615;BME280;8926;49.720;6.576;2022-09-11T12:43:48;100012.72;;;24.43;50.61
17615;BME280;8926;49.720;6.576;2022-09-11T12:48:47;100009.25;;;24.34;51.99
17615;BME280;8926;49.720;6.576;2022-09-11T12:51:22;100002.41;;;24.40;52.77
17615;BME280;8926;49.720;6.576;2022-09-11T12:53:51;99998.03;;;24.47;51.75
17615;BME280;8926;49.720;6.576;2022-09-11T12:56:20;100000.41;;;24.25;51.13
17615;BME280;8926;49.720;6.576;2022-09-11T13:01:20;99997.06;;;23.99;52.46
17615;BME280;8926;49.720;6.576;2022-09-11T13:06:23;100000.72;;;24.06;51.62
17615;BME280;8926;49.720;6.576;2022-09-11T13:08:53;99988.72;;;24.02;51.61
17615;BME280;8926;49.720;6.576;2022-09-11T13:11:42;99985.38;;;24.08;50.88
17615;BME280;8926;49.720;6.576;2022-09-11T13:16:52;99992.06;;;23.80;50.64
17615;BME280;8926;49.720;6.576;2022-09-11T13:19:17;99982.72;;;23.76;52.17
17615;BME280;8926;49.720;6.576;2022-09-11T13:21:47;99982.69;;;23.92;51.76
17615;BME280;8926;49.720;6.576;2022-09-11T13:26:53;99974.69;;;24.00;51.65
17615;BME280;8926;49.720;6.576;2022-09-11T13:29:25;99974.38;;;23.95;51.50
17615;BME280;8926;49.720;6.576;2022-09-11T13:31:51;99969.38;;;23.84;50.13
17615;BME280;8926;49.720;6.576;2022-09-11T13:34:18;99972.84;;;23.68;49.89
17615;BME280;8926;49.720;6.576;2022-09-11T13:36:47;99971.34;;;23.65;51.83
17615;BME280;8926;49.720;6.576;2022-09-11T13:39:15;99963.34;;;23.74;51.71
17615;BME280;8926;49.720;6.576;2022-09-11T13:41:46;99959.38;;;23.78;50.17
17615;BME280;8926;49.720;6.576;2022-09-11T13:44:41;99948.03;;;23.84;50.79
17615;BME280;8926;49.720;6.576;2022-09-11T13:47:18;99953.72;;;23.89;51.77
17615;BME280;8926;49.720;6.576;2022-09-11T13:49:45;99950.53;;;23.85;51.00
17615;BME280;8926;49.720;6.576;2022-09-11T13:52:12;99954.03;;;23.86;50.52
17615;BME280;8926;49.720;6.576;2022-09-11T13:54:52;99942.03;;;23.90;50.80
17615;BME280;8926;49.720;6.576;2022-09-11T13:57:20;99935.16;;;23.95;51.82
17615;BME280;8926;49.720;6.576;2022-09-11T13:59:51;99939.66;;;23.95;51.91
17615;BME280;8926;49.720;6.576;2022-09-11T14:05:23;99921.66;;;23.97;51.36
17615;BME280;8926;49.720;6.576;2022-09-11T14:11:23;99908.97;;;23.99;51.55
17615;BME280;8926;49.720;6.576;2022-09-11T14:14:05;99907.63;;;23.95;51.95
17615;BME280;8926;49.720;6.576;2022-09-11T14:16:34;99903.84;;;23.89;50.26
17615;BME280;8926;49.720;6.576;2022-09-11T14:19:07;99903.84;;;23.73;50.15
17615;BME280;8926;49.720;6.576;2022-09-11T14:21:39;99899.34;;;23.57;50.55
17615;BME280;8926;49.720;6.576;2022-09-11T14:24:27;99904.69;;;23.57;51.35
17615;BME280;8926;49.720;6.576;2022-09-11T14:26:52;99903.84;;;23.57;51.32
17615;BME280;8926;49.720;6.576;2022-09-11T14:29:27;99901.00;;;23.66;50.31
17615;BME280;8926;49.720;6.576;2022-09-11T14:31:54;99900.31;;;23.73;51.10
17615;BME280;8926;49.720;6.576;2022-09-11T14:34:27;99900.50;;;23.63;48.81
17615;BME280;8926;49.720;6.576;2022-09-11T14:37:04;99899.16;;;23.67;49.89
17615;BME280;8926;49.720;6.576;2022-09-11T14:39:38;99899.66;;;23.71;50.31
17615;BME280;8926;49.720;6.576;2022-09-11T14:42:06;99898.00;;;23.69;50.42
17615;BME280;8926;49.720;6.576;2022-09-11T14:44:33;99895.00;;;23.81;51.26
17615;BME280;8926;49.720;6.576;2022-09-11T14:46:59;99887.00;;;23.89;50.94
17615;BME280;8926;49.720;6.576;2022-09-11T14:49:24;99895.28;;;23.94;51.59
17615;BME280;8926;49.720;6.576;2022-09-11T14:51:55;99890.97;;;24.01;52.40
17615;BME280;8926;49.720;6.576;2022-09-11T14:54:23;99883.78;;;24.01;50.30
17615;BME280;8926;49.720;6.576;2022-09-11T14:56:49;99888.63;;;23.98;50.62
17615;BME280;8926;49.720;6.576;2022-09-11T14:59:14;99884.78;;;24.00;50.53
17615;BME280;8926;49.720;6.576;2022-09-11T15:01:40;99887.81;;;23.89;47.69
17615;BME280;8926;49.720;6.576;2022-09-11T15:04:10;99880.97;;;23.87;49.92
17615;BME280;8926;49.720;6.576;2022-09-11T15:06:39;99886.31;;;23.87;50.53
17615;BME280;8926;49.720;6.576;2022-09-11T15:09:05;99884.63;;;23.94;50.42
17615;BME280;8926;49.720;6.576;2022-09-11T15:11:30;99871.59;;;23.99;49.47
17615;BME280;8926;49.720;6.576;2022-09-11T15:13:57;99869.59;;;24.01;50.10
17615;BME280;8926;49.720;6.576;2022-09-11T15:16:22;99866.28;;;23.99;50.90
17615;BME280;8926;49.720;6.576;2022-09-11T15:18:47;99871.94;;;23.96;50.13
17615;BME280;8926;49.720;6.576;2022-09-11T15:21:13;99868.59;;;23.94;50.64